createdAt,value
2017-01-15T00:00:36.100Z,73.84
2017-01-15T00:01:46.110Z,73.75
2017-01-15T00:02:56.900Z,73.65
2017-01-15T00:04:07.659Z,73.84
2017-01-15T00:05:18.016Z,73.84
2017-01-15T00:06:28.777Z,73.75
2017-01-15T00:07:39.153Z,73.84
2017-01-15T00:08:49.907Z,73.84
2017-01-15T00:10:00.301Z,73.84
2017-01-15T00:11:10.300Z,73.75
2017-01-15T00:12:20.653Z,73.75
2017-01-15T00:13:31.012Z,73.46
2017-01-15T00:14:41.763Z,73.37
2017-01-15T00:15:52.539Z,73.84
2017-01-15T00:17:03.315Z,73.65
2017-01-15T00:18:13.693Z,73.75
2017-01-15T00:19:24.055Z,73.8
2017-01-15T00:20:34.393Z,73.8
2017-01-15T00:21:44.745Z,73.84
2017-01-15T00:22:55.506Z,73.61
2017-01-15T00:24:06.259Z,73.8
2017-01-15T00:25:17.010Z,73.71
2017-01-15T00:26:27.362Z,73.8
2017-01-15T00:27:38.109Z,73.52
2017-01-15T00:28:48.075Z,73.8
2017-01-15T00:29:58.820Z,73.71
2017-01-15T00:31:09.570Z,73.71
2017-01-15T00:32:19.940Z,73.71
2017-01-15T00:33:30.278Z,73.8
2017-01-15T00:34:40.623Z,73.71
2017-01-15T00:35:51.370Z,73.71
2017-01-15T00:37:01.722Z,73.71
2017-01-15T00:38:12.509Z,73.71
2017-01-15T00:39:23.253Z,73.71
2017-01-15T00:40:34.006Z,73.61
2017-01-15T00:41:44.761Z,73.33
2017-01-15T00:42:55.147Z,73.24
2017-01-15T00:44:05.491Z,73.33
2017-01-15T00:45:15.848Z,73.33
2017-01-15T00:46:26.185Z,73.43
2017-01-15T00:47:36.546Z,73.61
2017-01-15T00:48:47.297Z,73.71
2017-01-15T00:49:57.649Z,73.24
2017-01-15T00:51:08.015Z,73.61
2017-01-15T00:52:18.397Z,73.61
2017-01-15T00:53:29.145Z,73.71
2017-01-15T00:54:39.509Z,73.61
2017-01-15T00:55:49.846Z,73.33
2017-01-15T00:57:00.588Z,73.43
2017-01-15T00:58:11.363Z,73.24
2017-01-15T00:59:21.725Z,73.52
2017-01-15T01:00:32.092Z,73.71
2017-01-15T01:01:42.840Z,73.61
2017-01-15T01:02:53.196Z,73.71
2017-01-15T01:04:03.973Z,73.43
2017-01-15T01:05:14.316Z,73.24
2017-01-15T01:06:25.062Z,73.24
2017-01-15T01:07:35.438Z,73.33
2017-01-15T01:08:45.840Z,73.52
2017-01-15T01:09:56.188Z,73.52
2017-01-15T01:11:06.592Z,73.52
2017-01-15T01:12:17.335Z,73.43
2017-01-15T01:13:27.682Z,73.43
2017-01-15T01:14:38.020Z,73.52
2017-01-15T01:15:48.405Z,73.52
2017-01-15T01:16:59.157Z,73.52
2017-01-15T01:18:09.903Z,73.33
2017-01-15T01:19:19.867Z,73.24
2017-01-15T01:20:30.606Z,73.52
2017-01-15T01:21:41.344Z,73.43
2017-01-15T01:22:51.676Z,73.33
2017-01-15T01:24:01.655Z,73.33
2017-01-15T01:25:11.995Z,73.24
2017-01-15T01:26:22.430Z,73.43
2017-01-15T01:27:32.767Z,73.33
2017-01-15T01:28:42.708Z,73.24
2017-01-15T01:29:53.053Z,73.52
2017-01-15T01:31:03.001Z,73.33
2017-01-15T01:32:13.379Z,73.43
2017-01-15T01:33:23.341Z,73.33
2017-01-15T01:34:33.694Z,73.24
2017-01-15T01:35:44.441Z,73.43
2017-01-15T01:36:54.811Z,73.24
2017-01-15T01:38:05.568Z,73.33
2017-01-15T01:39:15.539Z,73.52
2017-01-15T01:40:25.875Z,73.43
2017-01-15T01:41:36.213Z,73.33
2017-01-15T01:42:46.552Z,73.33
2017-01-15T01:43:56.570Z,73.33
2017-01-15T01:45:06.924Z,73.05
2017-01-15T01:46:17.275Z,73.8
2017-01-15T01:47:28.022Z,73.05
2017-01-15T01:48:38.371Z,73.05
2017-01-15T01:49:48.712Z,73.71
2017-01-15T01:50:59.469Z,73.24
2017-01-15T01:52:10.210Z,73.05
2017-01-15T01:53:20.937Z,73.05
2017-01-15T01:54:30.918Z,72.86
2017-01-15T01:55:41.649Z,73.14
2017-01-15T01:56:52.001Z,73.71
2017-01-15T01:58:02.364Z,72.96
2017-01-15T01:59:13.105Z,73.61
2017-01-15T02:00:23.481Z,73.71
2017-01-15T02:01:33.436Z,73.33
2017-01-15T02:02:44.170Z,73.33
2017-01-15T02:03:54.521Z,73.43
2017-01-15T02:05:04.874Z,73.52
2017-01-15T02:06:15.640Z,73.33
2017-01-15T02:07:25.597Z,73.52
2017-01-15T02:08:36.345Z,73.33
2017-01-15T02:09:46.302Z,73.52
2017-01-15T02:10:56.639Z,73.33
2017-01-15T02:12:06.994Z,73.33
2017-01-15T02:13:17.726Z,73.71
2017-01-15T02:14:28.068Z,73.71
2017-01-15T02:15:38.426Z,73.43
2017-01-15T02:16:49.176Z,73.43
2017-01-15T02:17:59.541Z,73.33
2017-01-15T02:19:09.519Z,73.33
2017-01-15T02:20:19.467Z,73.43
2017-01-15T02:21:29.486Z,73.43
2017-01-15T02:22:40.222Z,73.43
2017-01-15T02:23:50.962Z,73.71
2017-01-15T02:25:01.310Z,73.43
2017-01-15T02:26:10.878Z,73.33
2017-01-15T02:27:21.603Z,73.52
2017-01-15T02:28:31.950Z,73.33
2017-01-15T02:29:42.697Z,73.43
2017-01-15T02:30:53.436Z,73.43
2017-01-15T02:32:03.426Z,73.33
2017-01-15T02:33:14.173Z,73.24
2017-01-15T02:34:24.515Z,73.43
2017-01-15T02:35:34.457Z,73.33
2017-01-15T02:36:45.232Z,73.8
2017-01-15T02:37:55.965Z,73.43
2017-01-15T02:39:06.342Z,73.24
2017-01-15T02:40:16.684Z,73.9
2017-01-15T02:41:27.050Z,73.52
2017-01-15T02:42:37.401Z,73.33
2017-01-15T02:43:48.144Z,73.33
2017-01-15T02:44:58.889Z,73.24
2017-01-15T02:46:09.243Z,73.9
2017-01-15T02:47:19.991Z,73.9
2017-01-15T02:48:30.731Z,73.52
2017-01-15T02:49:40.688Z,73.33
2017-01-15T02:50:51.042Z,73.33
2017-01-15T02:52:01.666Z,73.61
2017-01-15T02:53:12.200Z,73.24
2017-01-15T02:54:22.937Z,73.61
2017-01-15T02:55:33.658Z,73.52
2017-01-15T02:56:44.407Z,73.43
2017-01-15T02:57:54.352Z,73.8
2017-01-15T02:59:04.697Z,73.61
2017-01-15T03:00:15.435Z,73.24
2017-01-15T03:01:25.783Z,73.43
2017-01-15T03:33:20.053Z,71.39
2017-01-15T03:34:29.997Z,72.33
2017-01-15T03:35:40.333Z,73.09
2017-01-15T03:36:51.088Z,74.13
2017-01-15T03:38:01.439Z,74.6
2017-01-15T03:39:12.176Z,75.07
2017-01-15T03:40:22.917Z,75.17
2017-01-15T03:41:33.661Z,75.36
2017-01-15T03:42:44.011Z,75.68
2017-01-15T03:43:55.027Z,75.68
2017-01-15T03:45:04.977Z,75.87
2017-01-15T03:46:15.333Z,75.4
2017-01-15T03:47:26.083Z,75.12
2017-01-15T03:48:36.038Z,75.59
2017-01-15T03:49:46.390Z,75.43
2017-01-15T03:50:56.731Z,75.15
2017-01-15T03:52:07.083Z,74.87
2017-01-15T03:53:17.816Z,75.05
2017-01-15T03:54:28.551Z,74.96
2017-01-15T03:55:38.905Z,74.49
2017-01-15T03:56:49.638Z,74.87
2017-01-15T03:58:00.372Z,74.62
2017-01-15T03:59:10.722Z,74.52
2017-01-15T04:00:21.460Z,74.43
2017-01-15T04:01:31.411Z,74.24
2017-01-15T04:02:41.763Z,74.24
2017-01-15T04:03:52.118Z,74.43
2017-01-15T04:05:02.854Z,74.33
2017-01-15T04:06:13.213Z,73.86
2017-01-15T04:07:23.556Z,73.58
2017-01-15T04:08:33.508Z,73.24
2017-01-15T04:09:44.249Z,73.61
2017-01-15T04:10:54.978Z,73.71
2017-01-15T04:12:05.729Z,73.61
2017-01-15T04:13:16.474Z,73.33
2017-01-15T04:14:27.217Z,73.71
2017-01-15T04:15:37.578Z,73.71
2017-01-15T04:16:47.530Z,73.61
2017-01-15T04:17:58.281Z,73.52
2017-01-15T04:19:09.019Z,73.61
2017-01-15T04:20:19.379Z,73.61
2017-01-15T04:21:29.330Z,73.71
2017-01-15T04:22:39.693Z,73.71
2017-01-15T04:23:50.449Z,73.43
2017-01-15T04:25:00.410Z,73.61
2017-01-15T04:26:11.148Z,73.61
2017-01-15T04:27:21.884Z,73.43
2017-01-15T04:28:32.646Z,73.43
2017-01-15T04:29:42.997Z,73.61
2017-01-15T04:30:52.953Z,73.56
2017-01-15T04:32:03.302Z,73.43
2017-01-15T04:33:14.039Z,73.52
2017-01-15T04:34:24.380Z,73.61
2017-01-15T04:35:34.340Z,73.61
2017-01-15T04:36:45.092Z,73.43
2017-01-15T04:37:55.835Z,73.43
2017-01-15T04:39:06.191Z,73.8
2017-01-15T04:40:16.148Z,73.61
2017-01-15T04:41:26.904Z,73.8
2017-01-15T04:42:37.645Z,73.71
2017-01-15T04:43:47.999Z,73.8
2017-01-15T04:44:58.351Z,73.61
2017-01-15T04:46:08.709Z,73.71
2017-01-15T04:47:18.684Z,73.8
2017-01-15T04:48:29.437Z,73.8
2017-01-15T04:49:39.806Z,73.71
2017-01-15T04:50:50.172Z,73.8
2017-01-15T04:52:00.126Z,73.61
2017-01-15T04:53:10.079Z,73.9
2017-01-15T04:54:20.810Z,73.8
2017-01-15T04:55:31.161Z,74.28
2017-01-15T04:56:41.900Z,74.75
2017-01-15T04:57:52.629Z,73.71
2017-01-15T04:59:02.983Z,73.71
2017-01-15T05:00:13.313Z,73.61
2017-01-15T05:01:23.259Z,73.43
2017-01-15T05:02:33.981Z,73.33
2017-01-15T05:03:44.731Z,73.61
2017-01-15T05:04:55.483Z,73.33
2017-01-15T05:06:06.232Z,73.33
2017-01-15T05:07:16.588Z,73.52
2017-01-15T05:08:26.524Z,73.71
2017-01-15T05:09:36.471Z,73.71
2017-01-15T05:10:46.817Z,73.43
2017-01-15T05:11:57.176Z,73.33
2017-01-15T05:13:07.147Z,73.61
2017-01-15T05:14:17.891Z,73.61
2017-01-15T05:15:27.858Z,73.33
2017-01-15T05:16:37.801Z,73.33
2017-01-15T05:17:48.533Z,73.33
2017-01-15T05:18:59.273Z,73.33
2017-01-15T05:20:09.264Z,73.33
2017-01-15T05:21:20.006Z,73.33
2017-01-15T05:22:30.740Z,73.8
2017-01-15T05:23:41.104Z,73.77
2017-01-15T05:24:51.050Z,73.58
2017-01-15T05:26:00.633Z,73.8
2017-01-15T05:27:11.376Z,73.71
2017-01-15T05:28:21.736Z,73.71
2017-01-15T05:29:32.485Z,73.8
2017-01-15T05:30:42.825Z,73.43
2017-01-15T05:31:52.786Z,73.8
2017-01-15T05:33:03.527Z,73.61
2017-01-15T05:34:13.486Z,73.58
2017-01-15T05:35:24.261Z,73.33
2017-01-15T05:36:34.217Z,73.33
2017-01-15T05:37:44.956Z,73.58
2017-01-15T05:38:55.702Z,73.3
2017-01-15T05:40:06.449Z,73.33
2017-01-15T05:41:17.195Z,73.39
2017-01-15T05:42:27.930Z,73.71
2017-01-15T05:43:38.680Z,73.8
2017-01-15T05:44:48.226Z,73.8
2017-01-15T05:45:58.569Z,73.8
2017-01-15T05:47:08.912Z,73.52
2017-01-15T05:48:19.686Z,73.58
2017-01-15T05:49:30.431Z,73.52
2017-01-15T05:50:40.759Z,73.52
2017-01-15T05:51:50.710Z,73.61
2017-01-15T05:53:01.056Z,73.71
2017-01-15T05:54:11.015Z,73.61
2017-01-15T05:55:21.394Z,73.61
2017-01-15T05:56:32.128Z,73.61
2017-01-15T05:57:42.475Z,73.61
2017-01-15T05:58:52.821Z,73.61
2017-01-15T06:00:03.552Z,73.71
2017-01-15T06:01:13.902Z,73.61
2017-01-15T06:02:24.655Z,73.71
2017-01-15T06:03:34.620Z,73.61
2017-01-15T06:04:45.359Z,73.71
2017-01-15T06:05:55.299Z,73.71
2017-01-15T06:07:06.042Z,73.61
2017-01-15T06:08:16.393Z,73.71
2017-01-15T06:09:27.130Z,73.33
2017-01-15T06:10:37.858Z,73.8
2017-01-15T06:11:48.199Z,73.61
2017-01-15T06:12:58.944Z,73.71
2017-01-15T06:14:09.292Z,73.71
2017-01-15T06:15:19.644Z,74.28
2017-01-15T06:16:30.391Z,73.71
2017-01-15T06:17:40.755Z,73.52
2017-01-15T06:18:50.700Z,73.61
2017-01-15T06:20:01.446Z,73.61
2017-01-15T06:21:12.181Z,73.61
2017-01-15T06:22:22.529Z,73.61
2017-01-15T06:23:33.260Z,73.71
2017-01-15T06:24:43.598Z,73.61
2017-01-15T06:25:54.360Z,73.71
2017-01-15T06:27:04.726Z,73.33
2017-01-15T06:28:15.481Z,73.8
2017-01-15T06:29:26.225Z,73.52
2017-01-15T06:30:36.990Z,73.52
2017-01-15T06:31:47.735Z,73.52
2017-01-15T06:32:58.479Z,73.52
2017-01-15T06:34:08.825Z,73.43
2017-01-15T06:35:19.567Z,73.61
2017-01-15T06:36:29.918Z,73.52
2017-01-15T06:37:40.659Z,73.33
2017-01-15T06:38:51.018Z,73.8
2017-01-15T06:40:01.769Z,73.71
2017-01-15T06:41:12.112Z,73.61
2017-01-15T06:42:22.054Z,73.52
2017-01-15T06:43:32.409Z,73.71
2017-01-15T06:44:43.156Z,73.71
2017-01-15T06:45:53.112Z,73.71
2017-01-15T06:47:03.886Z,73.71
2017-01-15T06:48:14.633Z,73.52
2017-01-15T06:49:25.356Z,73.61
2017-01-15T06:50:35.694Z,73.61
2017-01-15T06:51:46.044Z,73.61
2017-01-15T06:52:56.383Z,73.8
2017-01-15T06:54:07.149Z,73.71
2017-01-15T06:55:17.117Z,73.71
2017-01-15T06:56:27.473Z,73.71
2017-01-15T06:57:38.216Z,73.61
2017-01-15T06:58:48.957Z,73.71
2017-01-15T06:59:58.920Z,73.52
2017-01-15T07:01:09.285Z,73.43
2017-01-15T07:02:20.014Z,73.71
2017-01-15T07:03:30.749Z,73.43
2017-01-15T07:04:41.486Z,73.52
2017-01-15T07:05:51.456Z,73.43
2017-01-15T07:07:02.425Z,73.14
2017-01-15T07:08:13.162Z,73.33
2017-01-15T07:09:23.902Z,73.05
2017-01-15T07:10:34.284Z,73.05
2017-01-15T07:11:44.238Z,73.14
2017-01-15T07:12:54.969Z,72.57
2017-01-15T07:14:05.330Z,72.67
2017-01-15T07:15:16.087Z,72.77
2017-01-15T07:16:26.838Z,72.77
2017-01-15T07:17:37.609Z,72.8
2017-01-15T07:18:47.963Z,72.33
2017-01-15T07:19:58.709Z,72.52
2017-01-15T07:21:09.456Z,73.08
2017-01-15T07:22:19.398Z,72.52
2017-01-15T07:23:29.743Z,72.42
2017-01-15T07:24:40.481Z,72.99
2017-01-15T07:25:50.832Z,72.8
2017-01-15T07:27:01.584Z,73.18
2017-01-15T07:28:12.333Z,72.89
2017-01-15T07:29:22.678Z,72.61
2017-01-15T07:30:33.034Z,72.8
2017-01-15T07:31:43.773Z,72.8
2017-01-15T07:32:54.145Z,72.61
2017-01-15T07:34:04.505Z,72.61
2017-01-15T07:35:15.256Z,72.61
2017-01-15T07:36:25.995Z,72.8
2017-01-15T07:37:36.744Z,72.61
2017-01-15T07:38:47.088Z,72.99
2017-01-15T07:39:57.827Z,72.89
2017-01-15T07:41:08.179Z,72.8
2017-01-15T07:42:18.523Z,72.8
2017-01-15T07:43:28.885Z,72.8
2017-01-15T07:44:39.626Z,72.89
2017-01-15T07:45:49.977Z,73.03
2017-01-15T07:47:00.343Z,72.55
2017-01-15T07:48:10.306Z,72.36
2017-01-15T07:49:21.068Z,72.55
2017-01-15T07:50:30.238Z,72.55
2017-01-15T07:51:40.986Z,72.84
2017-01-15T07:52:50.948Z,72.74
2017-01-15T07:54:00.909Z,72.74
2017-01-15T07:55:10.863Z,72.55
2017-01-15T07:56:21.616Z,72.84
2017-01-15T07:57:31.953Z,72.84
2017-01-15T07:58:42.725Z,73.12
2017-01-15T07:59:53.077Z,72.93
2017-01-15T08:01:02.649Z,72.84
2017-01-15T08:02:12.990Z,73.03
2017-01-15T08:03:23.748Z,73.12
2017-01-15T08:04:33.717Z,73.03
2017-01-15T08:05:44.079Z,72.84
2017-01-15T08:06:54.456Z,72.93
2017-01-15T08:08:05.223Z,72.55
2017-01-15T08:09:15.974Z,72.74
2017-01-15T08:10:26.715Z,72.55
2017-01-15T08:11:37.063Z,72.64
2017-01-15T08:12:47.414Z,72.64
2017-01-15T08:13:58.151Z,72.74
2017-01-15T08:15:08.945Z,72.74
2017-01-15T08:16:19.309Z,72.84
2017-01-15T08:17:30.066Z,72.84
2017-01-15T08:18:40.818Z,72.55
2017-01-15T08:19:51.565Z,72.11
2017-01-15T08:21:01.924Z,72.4
2017-01-15T08:22:11.862Z,72.02
2017-01-15T08:23:22.635Z,72.4
2017-01-15T08:24:32.993Z,72.11
2017-01-15T08:25:43.738Z,72.02
2017-01-15T08:26:54.086Z,71.67
2017-01-15T08:28:04.056Z,72.06
2017-01-15T08:29:14.811Z,71.58
2017-01-15T08:30:25.154Z,71.77
2017-01-15T08:31:35.135Z,71.77
2017-01-15T08:32:45.487Z,72.06
2017-01-15T08:33:55.872Z,72.06
2017-01-15T08:35:06.229Z,72.15
2017-01-15T08:36:16.983Z,72.81
2017-01-15T08:37:27.764Z,72.72
2017-01-15T08:38:38.556Z,72.34
2017-01-15T08:39:49.332Z,71.48
2017-01-15T08:40:59.685Z,71.71
2017-01-15T08:42:10.425Z,71.14
2017-01-15T08:43:21.189Z,71.71
2017-01-15T08:44:31.553Z,71.14
2017-01-15T08:45:41.514Z,71.23
2017-01-15T08:46:51.908Z,71.66
2017-01-15T08:48:02.246Z,72.03
2017-01-15T08:49:12.991Z,72.09
2017-01-15T08:50:23.769Z,72.47
2017-01-15T08:51:34.125Z,72.75
2017-01-15T08:52:44.861Z,72.56
2017-01-15T08:53:54.855Z,72.66
2017-01-15T08:55:05.222Z,73.04
2017-01-15T08:56:16.000Z,73.1
2017-01-15T08:57:26.748Z,72.91
2017-01-15T08:58:37.099Z,72.63
2017-01-15T08:59:47.865Z,72.72
2017-01-15T09:00:58.614Z,72.63
2017-01-15T09:02:09.385Z,72.91
2017-01-15T09:03:19.747Z,73.19
2017-01-15T09:04:29.707Z,72.34
2017-01-15T09:05:40.065Z,72.53
2017-01-15T09:06:50.440Z,72.72
2017-01-15T09:08:01.203Z,72.81
2017-01-15T09:09:11.941Z,72.72
2017-01-15T09:10:22.689Z,72.63
2017-01-15T09:11:33.502Z,72.09
2017-01-15T09:12:44.250Z,72.19
2017-01-15T09:13:54.212Z,72.19
2017-01-15T09:15:04.164Z,72.38
2017-01-15T09:16:14.914Z,71.71
2017-01-15T09:17:25.259Z,72.19
2017-01-15T09:18:35.233Z,71.71
2017-01-15T09:19:45.990Z,71.75
2017-01-15T09:20:55.942Z,70.79
2017-01-15T09:22:06.289Z,70.36
2017-01-15T09:23:17.081Z,70.26
2017-01-15T09:24:27.847Z,70.54
2017-01-15T09:25:38.238Z,70.74
2017-01-15T09:26:48.990Z,70.54
2017-01-15T09:27:59.762Z,70.01
2017-01-15T09:29:10.527Z,70.01
2017-01-15T09:30:21.270Z,70.1
2017-01-15T09:31:31.621Z,70.01
2017-01-15T09:32:42.375Z,70.1
2017-01-15T09:33:51.945Z,71.06
2017-01-15T09:35:02.340Z,71.06
2017-01-15T09:36:12.689Z,70.97
2017-01-15T09:37:22.257Z,71.63
2017-01-15T09:38:33.257Z,71.25
2017-01-15T09:39:44.017Z,71.06
2017-01-15T09:40:54.751Z,70.58
2017-01-15T09:42:05.126Z,70.05
2017-01-15T09:43:15.101Z,70.05
2017-01-15T09:44:25.473Z,70.14
2017-01-15T09:45:36.210Z,70.9
2017-01-15T09:46:46.628Z,70.68
2017-01-15T09:47:57.373Z,71.15
2017-01-15T09:49:07.738Z,71.82
2017-01-15T09:50:18.096Z,71.53
2017-01-15T09:51:28.493Z,71.63
2017-01-15T09:52:39.251Z,71.82
2017-01-15T09:53:50.012Z,71.91
2017-01-15T09:55:00.768Z,71.82
2017-01-15T09:56:11.160Z,71.31
2017-01-15T09:57:21.936Z,71.25
2017-01-15T09:58:32.278Z,71.06
2017-01-15T09:59:43.036Z,70.77
2017-01-15T10:00:53.791Z,71.44
2017-01-15T10:02:04.525Z,71.69
2017-01-15T10:03:14.487Z,71.97
2017-01-15T10:04:24.857Z,71.97
2017-01-15T10:05:35.230Z,71.78
2017-01-15T10:06:45.204Z,71.97
2017-01-15T10:07:55.942Z,71.97
2017-01-15T10:09:05.923Z,72.26
2017-01-15T10:10:16.306Z,71.69
2017-01-15T10:11:26.688Z,71.5
2017-01-15T10:12:36.641Z,72.26
2017-01-15T10:13:46.998Z,71.5
2017-01-15T10:14:57.984Z,71.5
2017-01-15T10:16:08.741Z,71.69
2017-01-15T10:17:19.497Z,72.16
2017-01-15T10:18:30.251Z,72.16
2017-01-15T10:19:41.019Z,71.84
2017-01-15T10:20:51.789Z,71.84
2017-01-15T10:22:02.559Z,72.45
2017-01-15T10:23:13.312Z,71.84
2017-01-15T10:24:23.665Z,72.07
2017-01-15T10:25:34.040Z,72.32
2017-01-15T10:26:44.807Z,71.84
2017-01-15T10:27:55.172Z,72.41
2017-01-15T10:29:05.919Z,72.13
2017-01-15T10:30:16.691Z,71.94
2017-01-15T10:31:27.448Z,71.84
2017-01-15T10:32:37.815Z,72.03
2017-01-15T10:33:48.605Z,72.22
2017-01-15T10:34:58.960Z,71.88
2017-01-15T10:36:09.324Z,71.84
2017-01-15T10:37:19.288Z,71.22
2017-01-15T10:38:29.663Z,71.78
2017-01-15T10:39:39.616Z,71.78
2017-01-15T10:40:49.967Z,71.02
2017-01-15T10:42:00.334Z,71.02
2017-01-15T10:43:10.303Z,70.83
2017-01-15T10:44:20.674Z,71.31
2017-01-15T10:45:30.257Z,71.02
2017-01-15T10:46:41.032Z,71.22
2017-01-15T10:47:51.780Z,71.22
2017-01-15T10:49:02.147Z,70.83
2017-01-15T10:50:12.899Z,70.74
2017-01-15T10:51:23.659Z,71.88
2017-01-15T10:52:34.015Z,71.22
2017-01-15T10:53:44.388Z,71.69
2017-01-15T10:54:54.739Z,71.5
2017-01-15T10:56:05.501Z,71.78
2017-01-15T10:57:15.068Z,71.78
2017-01-15T10:58:25.439Z,71.97
2017-01-15T10:59:35.792Z,71.97
2017-01-15T11:00:46.559Z,72.07
2017-01-15T11:01:56.925Z,71.97
2017-01-15T11:03:07.713Z,71.78
2017-01-15T11:04:18.480Z,71.78
2017-01-15T11:05:29.261Z,72.26
2017-01-15T11:06:39.622Z,72.26
2017-01-15T11:07:50.001Z,72.55
2017-01-15T11:09:00.775Z,72.13
2017-01-15T11:10:11.553Z,72.03
2017-01-15T11:11:21.943Z,72.79
2017-01-15T11:12:31.911Z,72.13
2017-01-15T11:13:42.291Z,72.13
2017-01-15T11:14:53.050Z,71.66
2017-01-15T11:16:02.620Z,72.45
2017-01-15T11:17:12.586Z,72.7
2017-01-15T11:18:23.350Z,72.51
2017-01-15T11:19:33.330Z,72.6
2017-01-15T11:20:43.701Z,72.22
2017-01-15T11:21:54.095Z,73.08
2017-01-15T11:23:04.091Z,72.6
2017-01-15T11:24:14.053Z,71.84
2017-01-15T11:25:24.815Z,71.12
2017-01-15T11:26:35.586Z,71.02
2017-01-15T11:27:46.379Z,70.93
2017-01-15T11:28:57.134Z,71.78
2017-01-15T11:30:07.521Z,71.41
2017-01-15T11:31:17.892Z,71.02
2017-01-15T11:32:27.849Z,70.58
2017-01-15T11:33:38.221Z,70.97
2017-01-15T11:34:48.992Z,71.44
2017-01-15T11:35:59.360Z,71.5
2017-01-15T11:37:09.715Z,72.16
2017-01-15T11:38:20.454Z,72.16
2017-01-15T11:39:31.220Z,72.45
2017-01-15T11:40:41.202Z,72.45
2017-01-15T11:41:51.583Z,72.35
2017-01-15T11:43:02.342Z,71.97
2017-01-15T11:44:12.307Z,71.97
2017-01-15T11:45:22.670Z,71.78
2017-01-15T11:46:33.434Z,71.63
2017-01-15T11:47:44.202Z,71.91
2017-01-15T11:48:54.981Z,72.11
2017-01-15T11:50:05.335Z,71.63
2017-01-15T11:51:15.701Z,72.2
2017-01-15T11:52:26.483Z,72.64
2017-01-15T11:53:36.863Z,72.45
2017-01-15T11:54:47.222Z,72.26
2017-01-15T11:55:57.976Z,73.11
2017-01-15T11:57:08.352Z,72.92
2017-01-15T11:58:18.732Z,72.74
2017-01-15T11:59:29.089Z,71.97
2017-01-15T12:00:39.469Z,71.22
2017-01-15T12:01:50.227Z,70.68
2017-01-15T12:03:01.002Z,70.58
2017-01-15T12:04:11.772Z,71.15
2017-01-15T12:05:22.540Z,70.97
2017-01-15T12:06:32.933Z,71.72
2017-01-15T12:07:43.706Z,72.74
2017-01-15T12:08:53.684Z,72.74
2017-01-15T12:10:04.440Z,72.35
2017-01-15T12:11:15.191Z,71.97
2017-01-15T12:12:25.952Z,72.55
2017-01-15T12:13:36.721Z,72.74
2017-01-15T12:14:47.456Z,72.83
2017-01-15T12:15:58.261Z,72.51
2017-01-15T12:17:08.640Z,72.41
2017-01-15T12:18:18.996Z,72.7
2017-01-15T12:19:29.735Z,72.79
2017-01-15T12:20:40.479Z,72.32
2017-01-15T12:21:50.840Z,72.6
2017-01-15T12:23:01.593Z,72.51
2017-01-15T12:24:12.368Z,72.7
2017-01-15T12:25:23.162Z,72.89
2017-01-15T12:26:33.924Z,72.03
2017-01-15T12:27:44.286Z,72.32
2017-01-15T12:28:54.261Z,72.32
2017-01-15T12:30:05.019Z,72.13
2017-01-15T12:31:15.244Z,72.41
2017-01-15T12:32:25.633Z,72.13
2017-01-15T12:33:35.997Z,72.22
2017-01-15T12:34:46.367Z,72.22
2017-01-15T12:35:56.352Z,72.22
2017-01-15T12:37:07.125Z,72.13
2017-01-15T12:38:17.917Z,72.41
2017-01-15T12:39:28.743Z,72.41
2017-01-15T12:40:39.524Z,71.27
2017-01-15T12:41:49.933Z,71.27
2017-01-15T12:43:00.356Z,72.13
2017-01-15T12:44:10.734Z,72.03
2017-01-15T12:45:21.481Z,72.03
2017-01-15T12:46:32.246Z,72.41
2017-01-15T12:47:42.625Z,72.22
2017-01-15T12:48:53.394Z,72.89
2017-01-15T12:50:03.404Z,72.89
2017-01-15T12:51:14.186Z,72.6
2017-01-15T12:52:24.539Z,72.6
2017-01-15T12:53:34.907Z,72.47
2017-01-15T12:54:45.671Z,72.56
2017-01-15T12:55:56.064Z,72.75
2017-01-15T12:57:06.018Z,72.75
2017-01-15T12:58:16.387Z,72.47
2017-01-15T12:59:27.141Z,72.47
2017-01-15T13:00:37.484Z,72.66
2017-01-15T13:01:48.245Z,72.56
2017-01-15T13:02:58.597Z,72.09
2017-01-15T13:04:08.969Z,72.09
2017-01-15T13:05:19.763Z,72
2017-01-15T13:06:30.517Z,70.99
2017-01-15T13:07:40.484Z,70.07
2017-01-15T13:08:50.847Z,70.26
2017-01-15T13:10:00.812Z,69.98
2017-01-15T13:11:11.559Z,70.01
2017-01-15T13:12:21.912Z,70.54
2017-01-15T13:13:32.663Z,70.01
2017-01-15T13:14:42.273Z,70.97
2017-01-15T13:15:52.273Z,70.83
2017-01-15T13:17:02.236Z,70.93
2017-01-15T13:18:12.989Z,70.83
2017-01-15T13:19:23.752Z,70.97
2017-01-15T13:20:33.335Z,70.87
2017-01-15T13:21:44.123Z,71.34
2017-01-15T13:22:54.486Z,70.93
2017-01-15T13:24:04.869Z,71.15
2017-01-15T13:25:15.637Z,70.87
2017-01-15T13:26:26.400Z,71.34
2017-01-15T13:27:36.410Z,71.06
2017-01-15T13:28:47.189Z,71.44
2017-01-15T13:29:57.578Z,71.44
2017-01-15T13:31:07.556Z,71.53
2017-01-15T13:32:18.323Z,71.97
2017-01-15T13:33:29.139Z,72.74
2017-01-15T13:34:39.493Z,72.92
2017-01-15T13:35:49.859Z,72.13
2017-01-15T13:37:00.611Z,72.26
2017-01-15T13:38:11.385Z,72.89
2017-01-15T13:39:21.365Z,73.55
2017-01-15T13:40:31.729Z,73.42
2017-01-15T13:41:42.507Z,73.33
2017-01-15T13:42:53.280Z,73.52
2017-01-15T13:44:03.661Z,73.8
2017-01-15T13:45:14.433Z,73.99
2017-01-15T13:46:25.199Z,73.48
2017-01-15T13:47:35.601Z,73.67
2017-01-15T13:48:45.973Z,72.72
2017-01-15T13:49:56.731Z,72.75
2017-01-15T13:51:07.135Z,72.28
2017-01-15T13:52:17.114Z,72.09
2017-01-15T13:53:27.870Z,72.19
2017-01-15T13:54:38.248Z,71.9
2017-01-15T13:55:48.617Z,71.81
2017-01-15T13:56:59.005Z,71.56
2017-01-15T13:58:09.782Z,71.46
2017-01-15T13:59:20.147Z,71.56
2017-01-15T14:00:30.531Z,71.75
2017-01-15T14:01:40.890Z,72.03
2017-01-15T14:02:51.651Z,71.46
2017-01-15T14:04:02.037Z,71.46
2017-01-15T14:05:12.811Z,71.46
2017-01-15T14:06:23.588Z,71.94
2017-01-15T14:07:33.801Z,71.75
2017-01-15T14:08:44.165Z,71.84
2017-01-15T14:09:54.937Z,72.22
2017-01-15T14:11:05.708Z,71.84
2017-01-15T14:12:16.469Z,71.94
2017-01-15T14:13:26.834Z,72.6
2017-01-15T14:14:37.656Z,72.6
2017-01-15T14:15:48.427Z,72.6
2017-01-15T14:16:59.178Z,72.38
2017-01-15T14:18:09.559Z,72.19
2017-01-15T14:19:20.323Z,72
2017-01-15T14:20:31.115Z,72
2017-01-15T14:21:41.891Z,73.04
2017-01-15T14:22:52.251Z,72.66
2017-01-15T14:24:02.223Z,72.75
2017-01-15T14:25:12.630Z,72.85
2017-01-15T14:26:23.396Z,72.85
2017-01-15T14:27:33.342Z,72.91
2017-01-15T14:28:44.103Z,72.81
2017-01-15T14:29:54.867Z,72.66
2017-01-15T14:31:05.246Z,72.44
2017-01-15T14:32:16.026Z,72.19
2017-01-15T14:33:26.402Z,72.63
2017-01-15T14:34:37.186Z,72.91
2017-01-15T14:35:47.936Z,72.91
2017-01-15T14:36:57.920Z,73
2017-01-15T14:38:08.747Z,72.91
2017-01-15T14:39:19.514Z,72.91
2017-01-15T14:40:29.891Z,72.72
2017-01-15T14:41:40.653Z,72.72
2017-01-15T14:42:51.024Z,72.81
2017-01-15T14:44:01.798Z,72.63
2017-01-15T14:45:12.180Z,72.81
2017-01-15T14:46:22.577Z,73.19
2017-01-15T14:47:32.551Z,72.97
2017-01-15T14:48:43.305Z,73.35
2017-01-15T14:49:53.691Z,73.16
2017-01-15T14:51:04.484Z,73.35
2017-01-15T14:52:15.224Z,73.54
2017-01-15T14:53:25.970Z,73.35
2017-01-15T14:54:36.326Z,73.35
2017-01-15T14:55:47.080Z,73.35
2017-01-15T14:56:57.840Z,73.54
2017-01-15T14:58:08.596Z,73.35
2017-01-15T14:59:19.349Z,73.03
2017-01-15T15:00:29.711Z,73.12
2017-01-15T15:01:39.677Z,73.12
2017-01-15T15:02:50.059Z,73.31
2017-01-15T15:04:00.814Z,73.03
2017-01-15T15:05:11.571Z,73.03
2017-01-15T15:06:21.938Z,73.31
2017-01-15T15:07:32.694Z,73.5
2017-01-15T15:08:43.423Z,73.41
2017-01-15T15:09:53.004Z,73.31
2017-01-15T15:11:03.381Z,73.12
2017-01-15T15:12:13.353Z,73.03
2017-01-15T15:13:24.103Z,73.22
2017-01-15T15:14:34.095Z,73.12
2017-01-15T15:15:44.445Z,73.03
2017-01-15T15:16:55.237Z,73.03
2017-01-15T15:18:05.601Z,73.31
2017-01-15T15:19:16.390Z,73.12
2017-01-15T15:20:27.131Z,73.31
2017-01-15T15:21:36.694Z,73.18
2017-01-15T15:22:47.446Z,73.12
2017-01-15T15:23:57.396Z,73.12
2017-01-15T15:25:07.353Z,73.18
2017-01-15T15:26:18.128Z,73.18
2017-01-15T15:27:28.490Z,73.08
2017-01-15T15:28:39.280Z,73.08
2017-01-15T15:29:50.021Z,72.99
2017-01-15T15:31:00.400Z,72.99
2017-01-15T15:32:11.143Z,73.27
2017-01-15T15:33:21.527Z,73.27
2017-01-15T15:34:31.909Z,73.18
2017-01-15T15:35:42.300Z,73.08
2017-01-15T15:36:53.045Z,73.18
2017-01-15T15:38:03.820Z,73.08
2017-01-15T15:39:14.178Z,73.18
2017-01-15T15:40:24.531Z,73.08
2017-01-15T15:41:34.907Z,72.99